sensor_id;sensor_type;location;lat;lon;timestamp;P1;durP1;ratioP1;P2;durP2;ratioP2
5646;SDS011;2845;48.626;9.362;2023-06-14T00:00:13;2.65;;;1.27;;
5646;SDS011;2845;48.626;9.362;2023-06-14T00:02:49;5.10;;;1.50;;
5646;SDS011;2845;48.626;9.362;2023-06-14T00:05:24;3.33;;;1.50;;
5646;SDS011;2845;48.626;9.362;2023-06-14T00:07:59;3.03;;;1.70;;
5646;SDS011;2845;48.626;9.362;2023-06-14T00:10:34;3.15;;;1.33;;
5646;SDS011;2845;48.626;9.362;2023-06-14T00:13:08;2.95;;;1.60;;
5646;SDS011;2845;48.626;9.362;2023-06-14T00:15:42;4.85;;;1.77;;
5646;SDS011;2845;48.626;9.362;2023-06-14T00:18:17;2.85;;;1.27;;
5646;SDS011;2845;48.626;9.362;2023-06-14T00:20:52;3.53;;;1.40;;
5646;SDS011;2845;48.626;9.362;2023-06-14T00:23:26;3.50;;;1.50;;
5646;SDS011;2845;48.626;9.362;2023-06-14T00:26:01;2.47;;;1.33;;
5646;SDS011;2845;48.626;9.362;2023-06-14T00:28:35;3.45;;;1.70;;
5646;SDS011;2845;48.626;9.362;2023-06-14T00:31:09;3.35;;;1.42;;
5646;SDS011;2845;48.626;9.362;2023-06-14T00:33:43;4.53;;;1.90;;
5646;SDS011;2845;48.626;9.362;2023-06-14T00:36:19;3.75;;;1.52;;
5646;SDS011;2845;48.626;9.362;2023-06-14T00:38:53;2.53;;;1.20;;
5646;SDS011;2845;48.626;9.362;2023-06-14T00:41:27;3.25;;;1.70;;
5646;SDS011;2845;48.626;9.362;2023-06-14T00:44:01;4.25;;;1.30;;
5646;SDS011;2845;48.626;9.362;2023-06-14T00:46:35;3.83;;;1.48;;
5646;SDS011;2845;48.626;9.362;2023-06-14T00:49:10;2.85;;;1.50;;
5646;SDS011;2845;48.626;9.362;2023-06-14T00:51:46;3.50;;;1.70;;
5646;SDS011;2845;48.626;9.362;2023-06-14T00:54:20;2.28;;;1.20;;
5646;SDS011;2845;48.626;9.362;2023-06-14T00:56:55;3.67;;;1.40;;
5646;SDS011;2845;48.626;9.362;2023-06-14T00:59:29;2.72;;;1.40;;
5646;SDS011;2845;48.626;9.362;2023-06-14T01:02:04;3.85;;;1.45;;
5646;SDS011;2845;48.626;9.362;2023-06-14T01:04:39;3.00;;;1.45;;
5646;SDS011;2845;48.626;9.362;2023-06-14T01:07:21;3.33;;;1.38;;
5646;SDS011;2845;48.626;9.362;2023-06-14T01:10:09;3.63;;;1.35;;
5646;SDS011;2845;48.626;9.362;2023-06-14T01:12:57;2.85;;;1.30;;
5646;SDS011;2845;48.626;9.362;2023-06-14T01:15:41;3.22;;;1.40;;
5646;SDS011;2845;48.626;9.362;2023-06-14T01:18:17;2.90;;;1.40;;
5646;SDS011;2845;48.626;9.362;2023-06-14T01:20:52;2.38;;;1.42;;
5646;SDS011;2845;48.626;9.362;2023-06-14T01:23:29;4.95;;;1.48;;
5646;SDS011;2845;48.626;9.362;2023-06-14T01:26:04;2.45;;;1.13;;
5646;SDS011;2845;48.626;9.362;2023-06-14T01:28:39;2.10;;;1.25;;
5646;SDS011;2845;48.626;9.362;2023-06-14T01:31:13;2.67;;;1.15;;
5646;SDS011;2845;48.626;9.362;2023-06-14T01:33:50;2.85;;;1.50;;
5646;SDS011;2845;48.626;9.362;2023-06-14T01:36:25;2.20;;;1.15;;
5646;SDS011;2845;48.626;9.362;2023-06-14T01:39:02;3.40;;;1.40;;
5646;SDS011;2845;48.626;9.362;2023-06-14T01:41:39;2.40;;;1.40;;
5646;SDS011;2845;48.626;9.362;2023-06-14T01:44:14;2.90;;;1.27;;
5646;SDS011;2845;48.626;9.362;2023-06-14T01:46:50;3.40;;;1.60;;
5646;SDS011;2845;48.626;9.362;2023-06-14T01:49:25;3.05;;;1.38;;
5646;SDS011;2845;48.626;9.362;2023-06-14T01:51:59;2.67;;;1.33;;
5646;SDS011;2845;48.626;9.362;2023-06-14T01:54:35;2.92;;;1.33;;
5646;SDS011;2845;48.626;9.362;2023-06-14T01:57:14;2.70;;;1.02;;
5646;SDS011;2845;48.626;9.362;2023-06-14T01:59:49;2.55;;;1.42;;
5646;SDS011;2845;48.626;9.362;2023-06-14T02:02:23;2.97;;;1.30;;
5646;SDS011;2845;48.626;9.362;2023-06-14T02:04:57;2.85;;;1.30;;
5646;SDS011;2845;48.626;9.362;2023-06-14T02:07:31;4.22;;;1.80;;
5646;SDS011;2845;48.626;9.362;2023-06-14T02:10:07;3.55;;;1.60;;
5646;SDS011;2845;48.626;9.362;2023-06-14T02:12:41;2.42;;;1.23;;
5646;SDS011;2845;48.626;9.362;2023-06-14T02:15:16;3.55;;;1.20;;
5646;SDS011;2845;48.626;9.362;2023-06-14T02:17:51;3.58;;;1.48;;
5646;SDS011;2845;48.626;9.362;2023-06-14T02:20:26;2.78;;;1.35;;
5646;SDS011;2845;48.626;9.362;2023-06-14T02:23:00;3.08;;;1.45;;
5646;SDS011;2845;48.626;9.362;2023-06-14T02:25:36;3.75;;;1.50;;
5646;SDS011;2845;48.626;9.362;2023-06-14T02:28:12;2.88;;;1.52;;
5646;SDS011;2845;48.626;9.362;2023-06-14T02:30:46;2.80;;;1.42;;
5646;SDS011;2845;48.626;9.362;2023-06-14T02:33:20;3.95;;;1.48;;
5646;SDS011;2845;48.626;9.362;2023-06-14T02:35:54;4.07;;;1.20;;
5646;SDS011;2845;48.626;9.362;2023-06-14T02:38:29;1.90;;;1.08;;
5646;SDS011;2845;48.626;9.362;2023-06-14T02:41:04;3.67;;;1.77;;
5646;SDS011;2845;48.626;9.362;2023-06-14T02:43:38;2.42;;;1.25;;
5646;SDS011;2845;48.626;9.362;2023-06-14T02:46:12;4.00;;;1.50;;
5646;SDS011;2845;48.626;9.362;2023-06-14T02:48:47;3.13;;;1.40;;
5646;SDS011;2845;48.626;9.362;2023-06-14T02:51:21;3.13;;;1.13;;
5646;SDS011;2845;48.626;9.362;2023-06-14T02:53:55;2.22;;;1.30;;
5646;SDS011;2845;48.626;9.362;2023-06-14T02:56:30;3.33;;;1.70;;
5646;SDS011;2845;48.626;9.362;2023-06-14T02:59:05;3.30;;;1.30;;
5646;SDS011;2845;48.626;9.362;2023-06-14T03:01:39;4.00;;;1.52;;
5646;SDS011;2845;48.626;9.362;2023-06-14T03:04:14;3.35;;;1.27;;
5646;SDS011;2845;48.626;9.362;2023-06-14T03:06:48;2.75;;;1.70;;
5646;SDS011;2845;48.626;9.362;2023-06-14T03:09:23;3.35;;;1.30;;
5646;SDS011;2845;48.626;9.362;2023-06-14T03:11:59;2.13;;;0.90;;
5646;SDS011;2845;48.626;9.362;2023-06-14T03:14:33;5.63;;;1.95;;
5646;SDS011;2845;48.626;9.362;2023-06-14T03:17:07;3.72;;;1.88;;
5646;SDS011;2845;48.626;9.362;2023-06-14T03:19:42;3.10;;;1.50;;
5646;SDS011;2845;48.626;9.362;2023-06-14T03:22:19;4.50;;;1.27;;
5646;SDS011;2845;48.626;9.362;2023-06-14T03:24:54;2.90;;;1.25;;
5646;SDS011;2845;48.626;9.362;2023-06-14T03:27:29;2.92;;;1.40;;
5646;SDS011;2845;48.626;9.362;2023-06-14T03:30:04;2.67;;;1.10;;
5646;SDS011;2845;48.626;9.362;2023-06-14T03:32:40;2.83;;;1.38;;
5646;SDS011;2845;48.626;9.362;2023-06-14T03:35:14;2.85;;;1.27;;
5646;SDS011;2845;48.626;9.362;2023-06-14T03:37:49;3.30;;;1.52;;
5646;SDS011;2845;48.626;9.362;2023-06-14T03:40:23;3.08;;;1.45;;
5646;SDS011;2845;48.626;9.362;2023-06-14T03:43:00;3.33;;;1.55;;
5646;SDS011;2845;48.626;9.362;2023-06-14T03:45:34;3.97;;;1.85;;
5646;SDS011;2845;48.626;9.362;2023-06-14T03:48:09;3.22;;;1.27;;
5646;SDS011;2845;48.626;9.362;2023-06-14T03:50:43;3.85;;;1.65;;
5646;SDS011;2845;48.626;9.362;2023-06-14T03:53:17;2.97;;;1.58;;
5646;SDS011;2845;48.626;9.362;2023-06-14T03:55:52;2.72;;;1.20;;
5646;SDS011;2845;48.626;9.362;2023-06-14T03:58:29;4.28;;;1.42;;
5646;SDS011;2845;48.626;9.362;2023-06-14T04:01:04;4.57;;;1.55;;
5646;SDS011;2845;48.626;9.362;2023-06-14T04:03:39;3.38;;;1.52;;
5646;SDS011;2845;48.626;9.362;2023-06-14T04:06:13;3.85;;;1.45;;
5646;SDS011;2845;48.626;9.362;2023-06-14T04:08:51;4.10;;;1.77;;
5646;SDS011;2845;48.626;9.362;2023-06-14T04:11:28;2.40;;;1.38;;
5646;SDS011;2845;48.626;9.362;2023-06-14T04:14:04;3.63;;;1.52;;
5646;SDS011;2845;48.626;9.362;2023-06-14T04:16:41;2.78;;;1.30;;
5646;SDS011;2845;48.626;9.362;2023-06-14T04:19:15;2.10;;;0.95;;
5646;SDS011;2845;48.626;9.362;2023-06-14T04:21:49;3.10;;;1.20;;
5646;SDS011;2845;48.626;9.362;2023-06-14T04:24:24;4.07;;;1.42;;
5646;SDS011;2845;48.626;9.362;2023-06-14T04:27:04;5.85;;;1.60;;
5646;SDS011;2845;48.626;9.362;2023-06-14T04:29:40;2.65;;;1.40;;
5646;SDS011;2845;48.626;9.362;2023-06-14T04:32:16;3.45;;;1.67;;
5646;SDS011;2845;48.626;9.362;2023-06-14T04:34:51;2.88;;;1.42;;
5646;SDS011;2845;48.626;9.362;2023-06-14T04:37:26;3.53;;;1.65;;
5646;SDS011;2845;48.626;9.362;2023-06-14T04:40:01;2.47;;;1.30;;
5646;SDS011;2845;48.626;9.362;2023-06-14T04:42:43;4.03;;;1.40;;
5646;SDS011;2845;48.626;9.362;2023-06-14T04:45:19;2.92;;;1.55;;
5646;SDS011;2845;48.626;9.362;2023-06-14T04:47:54;2.42;;;1.45;;
5646;SDS011;2845;48.626;9.362;2023-06-14T04:50:30;3.55;;;1.70;;
5646;SDS011;2845;48.626;9.362;2023-06-14T04:53:05;2.35;;;1.40;;
5646;SDS011;2845;48.626;9.362;2023-06-14T04:55:39;2.47;;;1.38;;
5646;SDS011;2845;48.626;9.362;2023-06-14T04:58:19;3.20;;;1.45;;
5646;SDS011;2845;48.626;9.362;2023-06-14T05:00:55;4.35;;;1.30;;
5646;SDS011;2845;48.626;9.362;2023-06-14T05:03:31;2.47;;;1.25;;
5646;SDS011;2845;48.626;9.362;2023-06-14T05:06:07;2.85;;;1.50;;
5646;SDS011;2845;48.626;9.362;2023-06-14T05:08:41;3.28;;;1.55;;
5646;SDS011;2845;48.626;9.362;2023-06-14T05:11:15;3.25;;;1.83;;
5646;SDS011;2845;48.626;9.362;2023-06-14T05:13:50;3.53;;;1.80;;
5646;SDS011;2845;48.626;9.362;2023-06-14T05:16:29;4.68;;;2.17;;
5646;SDS011;2845;48.626;9.362;2023-06-14T05:19:03;3.55;;;1.55;;
5646;SDS011;2845;48.626;9.362;2023-06-14T05:21:37;3.95;;;1.85;;
5646;SDS011;2845;48.626;9.362;2023-06-14T05:24:15;3.13;;;1.30;;
5646;SDS011;2845;48.626;9.362;2023-06-14T05:26:50;4.13;;;2.17;;
5646;SDS011;2845;48.626;9.362;2023-06-14T05:29:25;3.78;;;1.60;;
5646;SDS011;2845;48.626;9.362;2023-06-14T05:32:04;3.72;;;1.85;;
5646;SDS011;2845;48.626;9.362;2023-06-14T05:34:39;4.10;;;1.98;;
5646;SDS011;2845;48.626;9.362;2023-06-14T05:37:17;4.65;;;1.80;;
5646;SDS011;2845;48.626;9.362;2023-06-14T05:39:52;3.20;;;1.88;;
5646;SDS011;2845;48.626;9.362;2023-06-14T05:42:26;3.65;;;1.83;;
5646;SDS011;2845;48.626;9.362;2023-06-14T05:45:00;4.25;;;1.90;;
5646;SDS011;2845;48.626;9.362;2023-06-14T05:47:36;3.65;;;2.17;;
5646;SDS011;2845;48.626;9.362;2023-06-14T05:50:10;4.15;;;1.75;;
5646;SDS011;2845;48.626;9.362;2023-06-14T05:52:44;6.05;;;2.00;;
5646;SDS011;2845;48.626;9.362;2023-06-14T05:55:19;3.33;;;2.05;;
5646;SDS011;2845;48.626;9.362;2023-06-14T05:57:53;4.65;;;2.28;;
5646;SDS011;2845;48.626;9.362;2023-06-14T06:00:27;5.45;;;2.28;;
5646;SDS011;2845;48.626;9.362;2023-06-14T06:03:03;4.15;;;2.20;;
5646;SDS011;2845;48.626;9.362;2023-06-14T06:05:37;4.30;;;1.77;;
5646;SDS011;2845;48.626;9.362;2023-06-14T06:08:11;3.45;;;1.70;;
5646;SDS011;2845;48.626;9.362;2023-06-14T06:10:45;3.80;;;1.92;;
5646;SDS011;2845;48.626;9.362;2023-06-14T06:13:20;3.15;;;1.95;;
5646;SDS011;2845;48.626;9.362;2023-06-14T06:15:54;4.72;;;2.00;;
5646;SDS011;2845;48.626;9.362;2023-06-14T06:18:30;4.55;;;2.00;;
5646;SDS011;2845;48.626;9.362;2023-06-14T06:21:04;4.00;;;1.75;;
5646;SDS011;2845;48.626;9.362;2023-06-14T06:23:39;5.13;;;2.13;;
5646;SDS011;2845;48.626;9.362;2023-06-14T06:26:13;4.18;;;2.25;;
5646;SDS011;2845;48.626;9.362;2023-06-14T06:28:48;5.00;;;2.13;;
5646;SDS011;2845;48.626;9.362;2023-06-14T06:31:22;4.72;;;2.08;;
5646;SDS011;2845;48.626;9.362;2023-06-14T06:33:57;4.13;;;1.88;;
5646;SDS011;2845;48.626;9.362;2023-06-14T06:36:32;5.53;;;2.40;;
5646;SDS011;2845;48.626;9.362;2023-06-14T06:39:06;4.47;;;2.70;;
5646;SDS011;2845;48.626;9.362;2023-06-14T06:41:42;4.75;;;2.20;;
5646;SDS011;2845;48.626;9.362;2023-06-14T06:44:16;5.10;;;2.03;;
5646;SDS011;2845;48.626;9.362;2023-06-14T06:46:50;4.38;;;2.20;;
5646;SDS011;2845;48.626;9.362;2023-06-14T06:49:26;4.13;;;2.13;;
5646;SDS011;2845;48.626;9.362;2023-06-14T06:52:01;3.70;;;2.40;;
5646;SDS011;2845;48.626;9.362;2023-06-14T06:54:36;4.32;;;2.17;;
5646;SDS011;2845;48.626;9.362;2023-06-14T06:57:10;4.93;;;2.40;;
5646;SDS011;2845;48.626;9.362;2023-06-14T06:59:45;6.38;;;2.47;;
5646;SDS011;2845;48.626;9.362;2023-06-14T07:02:19;4.60;;;2.30;;
5646;SDS011;2845;48.626;9.362;2023-06-14T07:04:54;5.68;;;1.95;;
5646;SDS011;2845;48.626;9.362;2023-06-14T07:07:29;3.70;;;2.00;;
5646;SDS011;2845;48.626;9.362;2023-06-14T07:10:03;4.65;;;2.00;;
5646;SDS011;2845;48.626;9.362;2023-06-14T07:12:41;5.85;;;2.58;;
5646;SDS011;2845;48.626;9.362;2023-06-14T07:15:15;3.45;;;2.13;;
5646;SDS011;2845;48.626;9.362;2023-06-14T07:17:50;4.78;;;2.58;;
5646;SDS011;2845;48.626;9.362;2023-06-14T07:20:26;7.18;;;2.50;;
5646;SDS011;2845;48.626;9.362;2023-06-14T07:23:01;2.85;;;1.85;;
5646;SDS011;2845;48.626;9.362;2023-06-14T07:25:35;5.13;;;2.17;;
5646;SDS011;2845;48.626;9.362;2023-06-14T07:28:09;5.15;;;2.10;;
5646;SDS011;2845;48.626;9.362;2023-06-14T07:30:43;4.18;;;2.22;;
5646;SDS011;2845;48.626;9.362;2023-06-14T07:33:18;5.32;;;2.20;;
5646;SDS011;2845;48.626;9.362;2023-06-14T07:35:54;5.50;;;2.35;;
5646;SDS011;2845;48.626;9.362;2023-06-14T07:38:28;2.53;;;1.85;;
5646;SDS011;2845;48.626;9.362;2023-06-14T07:41:02;5.00;;;2.03;;
5646;SDS011;2845;48.626;9.362;2023-06-14T07:43:37;4.55;;;2.20;;
5646;SDS011;2845;48.626;9.362;2023-06-14T07:46:11;3.25;;;2.03;;
5646;SDS011;2845;48.626;9.362;2023-06-14T07:48:45;3.13;;;1.95;;
5646;SDS011;2845;48.626;9.362;2023-06-14T07:51:21;3.30;;;1.88;;
5646;SDS011;2845;48.626;9.362;2023-06-14T07:53:55;4.30;;;2.50;;
5646;SDS011;2845;48.626;9.362;2023-06-14T07:56:29;3.50;;;2.00;;
5646;SDS011;2845;48.626;9.362;2023-06-14T07:59:04;4.72;;;2.38;;
5646;SDS011;2845;48.626;9.362;2023-06-14T08:01:38;4.03;;;1.90;;
5646;SDS011;2845;48.626;9.362;2023-06-14T08:04:12;3.78;;;2.58;;
5646;SDS011;2845;48.626;9.362;2023-06-14T08:06:48;2.97;;;1.92;;
5646;SDS011;2845;48.626;9.362;2023-06-14T08:09:22;3.17;;;2.00;;
5646;SDS011;2845;48.626;9.362;2023-06-14T08:11:57;4.13;;;2.10;;
5646;SDS011;2845;48.626;9.362;2023-06-14T08:14:32;4.20;;;2.20;;
5646;SDS011;2845;48.626;9.362;2023-06-14T08:17:06;2.65;;;1.80;;
5646;SDS011;2845;48.626;9.362;2023-06-14T08:19:41;4.13;;;2.10;;
5646;SDS011;2845;48.626;9.362;2023-06-14T08:22:16;4.30;;;2.08;;
5646;SDS011;2845;48.626;9.362;2023-06-14T08:24:51;3.70;;;1.90;;
5646;SDS011;2845;48.626;9.362;2023-06-14T08:27:26;2.97;;;1.55;;
5646;SDS011;2845;48.626;9.362;2023-06-14T08:30:05;2.90;;;1.80;;
5646;SDS011;2845;48.626;9.362;2023-06-14T08:32:41;2.35;;;1.52;;
5646;SDS011;2845;48.626;9.362;2023-06-14T08:35:15;4.20;;;1.73;;
5646;SDS011;2845;48.626;9.362;2023-06-14T08:37:52;3.60;;;1.85;;
5646;SDS011;2845;48.626;9.362;2023-06-14T08:40:26;3.42;;;1.73;;
5646;SDS011;2845;48.626;9.362;2023-06-14T08:43:03;3.80;;;2.03;;
5646;SDS011;2845;48.626;9.362;2023-06-14T08:45:38;3.75;;;2.08;;
5646;SDS011;2845;48.626;9.362;2023-06-14T08:48:12;3.30;;;2.05;;
5646;SDS011;2845;48.626;9.362;2023-06-14T08:50:49;4.10;;;2.08;;
5646;SDS011;2845;48.626;9.362;2023-06-14T08:53:28;3.95;;;1.90;;
5646;SDS011;2845;48.626;9.362;2023-06-14T08:56:09;3.03;;;1.95;;
5646;SDS011;2845;48.626;9.362;2023-06-14T08:58:45;4.63;;;2.22;;
5646;SDS011;2845;48.626;9.362;2023-06-14T09:01:22;3.63;;;2.03;;
5646;SDS011;2845;48.626;9.362;2023-06-14T09:03:57;3.95;;;1.98;;
5646;SDS011;2845;48.626;9.362;2023-06-14T09:06:31;3.75;;;2.08;;
5646;SDS011;2845;48.626;9.362;2023-06-14T09:09:07;3.33;;;2.10;;
5646;SDS011;2845;48.626;9.362;2023-06-14T09:11:41;3.30;;;1.90;;
5646;SDS011;2845;48.626;9.362;2023-06-14T09:14:17;4.10;;;2.17;;
5646;SDS011;2845;48.626;9.362;2023-06-14T09:16:52;4.40;;;2.45;;
5646;SDS011;2845;48.626;9.362;2023-06-14T09:19:27;3.53;;;2.13;;
5646;SDS011;2845;48.626;9.362;2023-06-14T09:22:03;3.10;;;1.73;;
5646;SDS011;2845;48.626;9.362;2023-06-14T09:24:39;4.43;;;2.10;;
5646;SDS011;2845;48.626;9.362;2023-06-14T09:27:15;2.90;;;1.80;;
5646;SDS011;2845;48.626;9.362;2023-06-14T09:29:49;4.28;;;2.08;;
5646;SDS011;2845;48.626;9.362;2023-06-14T09:32:24;4.13;;;2.28;;
5646;SDS011;2845;48.626;9.362;2023-06-14T09:34:59;2.80;;;2.03;;
5646;SDS011;2845;48.626;9.362;2023-06-14T09:37:33;5.47;;;2.40;;
5646;SDS011;2845;48.626;9.362;2023-06-14T09:40:11;3.22;;;2.15;;
5646;SDS011;2845;48.626;9.362;2023-06-14T09:42:45;2.83;;;2.08;;
5646;SDS011;2845;48.626;9.362;2023-06-14T09:45:20;3.10;;;1.73;;
5646;SDS011;2845;48.626;9.362;2023-06-14T09:47:54;5.30;;;2.60;;
5646;SDS011;2845;48.626;9.362;2023-06-14T09:50:39;4.30;;;2.17;;
5646;SDS011;2845;48.626;9.362;2023-06-14T09:53:13;3.67;;;2.40;;
5646;SDS011;2845;48.626;9.362;2023-06-14T09:55:50;2.95;;;1.73;;
5646;SDS011;2845;48.626;9.362;2023-06-14T09:58:28;4.03;;;2.40;;
5646;SDS011;2845;48.626;9.362;2023-06-14T10:01:04;3.00;;;1.90;;
5646;SDS011;2845;48.626;9.362;2023-06-14T10:03:42;4.18;;;2.25;;
5646;SDS011;2845;48.626;9.362;2023-06-14T10:06:22;3.08;;;1.90;;
5646;SDS011;2845;48.626;9.362;2023-06-14T10:08:58;4.43;;;2.15;;
5646;SDS011;2845;48.626;9.362;2023-06-14T10:11:35;3.13;;;2.00;;
5646;SDS011;2845;48.626;9.362;2023-06-14T10:14:10;3.85;;;2.13;;
5646;SDS011;2845;48.626;9.362;2023-06-14T10:16:48;3.53;;;2.00;;
5646;SDS011;2845;48.626;9.362;2023-06-14T10:19:31;2.70;;;1.90;;
5646;SDS011;2845;48.626;9.362;2023-06-14T10:22:14;4.18;;;2.13;;
5646;SDS011;2845;48.626;9.362;2023-06-14T10:24:55;5.05;;;2.17;;
5646;SDS011;2845;48.626;9.362;2023-06-14T10:27:31;3.80;;;2.42;;
5646;SDS011;2845;48.626;9.362;2023-06-14T10:30:07;3.42;;;2.08;;
5646;SDS011;2845;48.626;9.362;2023-06-14T10:35:38;4.38;;;2.40;;
5646;SDS011;2845;48.626;9.362;2023-06-14T10:38:12;3.60;;;2.20;;
5646;SDS011;2845;48.626;9.362;2023-06-14T10:40:50;3.85;;;2.53;;
5646;SDS011;2845;48.626;9.362;2023-06-14T10:43:29;4.25;;;2.40;;
5646;SDS011;2845;48.626;9.362;2023-06-14T10:46:16;3.33;;;1.95;;
5646;SDS011;2845;48.626;9.362;2023-06-14T10:48:56;4.43;;;2.88;;
5646;SDS011;2845;48.626;9.362;2023-06-14T10:51:37;3.55;;;2.47;;
5646;SDS011;2845;48.626;9.362;2023-06-14T10:54:20;4.32;;;2.33;;
5646;SDS011;2845;48.626;9.362;2023-06-14T10:56:56;3.28;;;2.50;;
5646;SDS011;2845;48.626;9.362;2023-06-14T10:59:34;3.40;;;2.40;;
5646;SDS011;2845;48.626;9.362;2023-06-14T11:02:14;3.80;;;2.38;;
5646;SDS011;2845;48.626;9.362;2023-06-14T11:05:27;4.53;;;2.58;;
5646;SDS011;2845;48.626;9.362;2023-06-14T11:08:07;3.38;;;2.20;;
5646;SDS011;2845;48.626;9.362;2023-06-14T11:11:13;3.95;;;2.50;;
5646;SDS011;2845;48.626;9.362;2023-06-14T11:13:48;3.72;;;2.33;;
5646;SDS011;2845;48.626;9.362;2023-06-14T11:16:25;5.75;;;2.67;;
5646;SDS011;2845;48.626;9.362;2023-06-14T11:19:01;3.35;;;2.60;;
5646;SDS011;2845;48.626;9.362;2023-06-14T11:21:39;5.55;;;2.72;;
5646;SDS011;2845;48.626;9.362;2023-06-14T11:24:14;4.65;;;2.60;;
5646;SDS011;2845;48.626;9.362;2023-06-14T11:26:51;5.13;;;2.78;;
5646;SDS011;2845;48.626;9.362;2023-06-14T11:29:25;4.07;;;2.33;;
5646;SDS011;2845;48.626;9.362;2023-06-14T11:32:08;3.53;;;2.10;;
5646;SDS011;2845;48.626;9.362;2023-06-14T11:34:45;3.65;;;2.53;;
5646;SDS011;2845;48.626;9.362;2023-06-14T11:37:20;3.83;;;2.22;;
5646;SDS011;2845;48.626;9.362;2023-06-14T11:39:58;4.32;;;2.20;;
5646;SDS011;2845;48.626;9.362;2023-06-14T11:42:41;3.60;;;2.15;;
5646;SDS011;2845;48.626;9.362;2023-06-14T11:45:15;3.72;;;2.17;;
5646;SDS011;2845;48.626;9.362;2023-06-14T11:47:53;4.32;;;2.78;;
5646;SDS011;2845;48.626;9.362;2023-06-14T11:50:30;3.50;;;2.50;;
5646;SDS011;2845;48.626;9.362;2023-06-14T11:53:05;4.53;;;2.42;;
5646;SDS011;2845;48.626;9.362;2023-06-14T11:55:40;3.28;;;2.60;;
5646;SDS011;2845;48.626;9.362;2023-06-14T11:58:16;5.07;;;3.05;;
5646;SDS011;2845;48.626;9.362;2023-06-14T12:00:54;5.30;;;2.80;;
5646;SDS011;2845;48.626;9.362;2023-06-14T12:03:30;4.32;;;2.65;;
5646;SDS011;2845;48.626;9.362;2023-06-14T12:06:06;5.03;;;3.00;;
5646;SDS011;2845;48.626;9.362;2023-06-14T12:08:42;3.55;;;2.47;;
5646;SDS011;2845;48.626;9.362;2023-06-14T12:11:21;3.05;;;2.30;;
5646;SDS011;2845;48.626;9.362;2023-06-14T12:13:56;4.05;;;2.58;;
5646;SDS011;2845;48.626;9.362;2023-06-14T12:16:31;4.57;;;2.42;;
5646;SDS011;2845;48.626;9.362;2023-06-14T12:19:12;4.28;;;2.50;;
5646;SDS011;2845;48.626;9.362;2023-06-14T12:21:48;3.85;;;2.30;;
5646;SDS011;2845;48.626;9.362;2023-06-14T12:24:23;4.43;;;2.83;;
5646;SDS011;2845;48.626;9.362;2023-06-14T12:27:03;3.90;;;2.50;;
5646;SDS011;2845;48.626;9.362;2023-06-14T12:29:38;4.50;;;2.40;;
5646;SDS011;2845;48.626;9.362;2023-06-14T12:32:12;4.72;;;2.53;;
5646;SDS011;2845;48.626;9.362;2023-06-14T12:34:48;4.57;;;2.47;;
5646;SDS011;2845;48.626;9.362;2023-06-14T12:37:22;4.32;;;2.63;;
5646;SDS011;2845;48.626;9.362;2023-06-14T12:39:57;3.33;;;2.45;;
5646;SDS011;2845;48.626;9.362;2023-06-14T12:42:32;3.70;;;2.75;;
5646;SDS011;2845;48.626;9.362;2023-06-14T12:45:07;3.58;;;2.58;;
5646;SDS011;2845;48.626;9.362;2023-06-14T12:47:42;5.07;;;3.20;;
5646;SDS011;2845;48.626;9.362;2023-06-14T12:50:18;3.92;;;2.97;;
5646;SDS011;2845;48.626;9.362;2023-06-14T12:52:58;4.13;;;2.70;;
5646;SDS011;2845;48.626;9.362;2023-06-14T12:55:32;3.97;;;2.63;;
5646;SDS011;2845;48.626;9.362;2023-06-14T12:58:06;4.35;;;2.78;;
5646;SDS011;2845;48.626;9.362;2023-06-14T13:00:40;3.80;;;2.67;;
5646;SDS011;2845;48.626;9.362;2023-06-14T13:03:15;4.10;;;2.65;;
5646;SDS011;2845;48.626;9.362;2023-06-14T13:05:54;5.10;;;3.10;;
5646;SDS011;2845;48.626;9.362;2023-06-14T13:08:28;3.78;;;2.60;;
5646;SDS011;2845;48.626;9.362;2023-06-14T13:11:02;6.88;;;2.50;;
5646;SDS011;2845;48.626;9.362;2023-06-14T13:13:44;4.88;;;3.08;;
5646;SDS011;2845;48.626;9.362;2023-06-14T13:16:18;4.53;;;2.88;;
5646;SDS011;2845;48.626;9.362;2023-06-14T13:18:52;3.63;;;2.50;;
5646;SDS011;2845;48.626;9.362;2023-06-14T13:21:28;3.83;;;2.50;;
5646;SDS011;2845;48.626;9.362;2023-06-14T13:24:02;4.40;;;2.50;;
5646;SDS011;2845;48.626;9.362;2023-06-14T13:26:37;3.45;;;2.70;;
5646;SDS011;2845;48.626;9.362;2023-06-14T13:29:12;3.28;;;2.60;;
5646;SDS011;2845;48.626;9.362;2023-06-14T13:31:46;5.22;;;2.95;;
5646;SDS011;2845;48.626;9.362;2023-06-14T13:34:20;4.40;;;3.10;;
5646;SDS011;2845;48.626;9.362;2023-06-14T13:36:56;3.88;;;3.20;;
5646;SDS011;2845;48.626;9.362;2023-06-14T13:39:31;3.38;;;2.70;;
5646;SDS011;2845;48.626;9.362;2023-06-14T13:42:06;3.97;;;2.80;;
5646;SDS011;2845;48.626;9.362;2023-06-14T13:44:41;4.13;;;2.92;;
5646;SDS011;2845;48.626;9.362;2023-06-14T13:47:15;4.43;;;3.25;;
5646;SDS011;2845;48.626;9.362;2023-06-14T13:49:49;4.88;;;3.03;;
5646;SDS011;2845;48.626;9.362;2023-06-14T13:52:27;5.70;;;2.88;;
5646;SDS011;2845;48.626;9.362;2023-06-14T13:55:02;4.18;;;3.00;;
5646;SDS011;2845;48.626;9.362;2023-06-14T13:57:37;4.47;;;2.80;;
5646;SDS011;2845;48.626;9.362;2023-06-14T14:00:12;4.47;;;2.70;;
5646;SDS011;2845;48.626;9.362;2023-06-14T14:02:48;4.47;;;2.35;;
5646;SDS011;2845;48.626;9.362;2023-06-14T14:05:23;3.92;;;2.85;;
5646;SDS011;2845;48.626;9.362;2023-06-14T14:08:02;4.45;;;2.67;;
5646;SDS011;2845;48.626;9.362;2023-06-14T14:10:37;3.72;;;3.00;;
5646;SDS011;2845;48.626;9.362;2023-06-14T14:13:11;4.30;;;2.78;;
5646;SDS011;2845;48.626;9.362;2023-06-14T14:15:46;4.97;;;2.90;;
5646;SDS011;2845;48.626;9.362;2023-06-14T14:18:21;3.97;;;2.70;;
5646;SDS011;2845;48.626;9.362;2023-06-14T14:21:03;6.20;;;3.17;;
5646;SDS011;2845;48.626;9.362;2023-06-14T14:23:38;4.57;;;3.00;;
5646;SDS011;2845;48.626;9.362;2023-06-14T14:26:13;5.30;;;2.85;;
5646;SDS011;2845;48.626;9.362;2023-06-14T14:28:47;4.25;;;2.63;;
5646;SDS011;2845;48.626;9.362;2023-06-14T14:31:22;4.57;;;2.70;;
5646;SDS011;2845;48.626;9.362;2023-06-14T14:33:56;3.50;;;2.40;;
5646;SDS011;2845;48.626;9.362;2023-06-14T14:36:30;3.47;;;2.42;;
5646;SDS011;2845;48.626;9.362;2023-06-14T14:39:11;4.13;;;2.88;;
5646;SDS011;2845;48.626;9.362;2023-06-14T14:41:46;4.55;;;2.95;;
5646;SDS011;2845;48.626;9.362;2023-06-14T14:44:20;7.45;;;2.53;;
5646;SDS011;2845;48.626;9.362;2023-06-14T14:46:57;4.68;;;3.20;;
5646;SDS011;2845;48.626;9.362;2023-06-14T14:49:32;3.83;;;2.63;;
5646;SDS011;2845;48.626;9.362;2023-06-14T14:52:06;3.80;;;2.60;;
5646;SDS011;2845;48.626;9.362;2023-06-14T14:54:56;4.57;;;2.70;;
5646;SDS011;2845;48.626;9.362;2023-06-14T14:57:30;4.10;;;2.58;;
5646;SDS011;2845;48.626;9.362;2023-06-14T15:00:05;5.75;;;2.72;;
5646;SDS011;2845;48.626;9.362;2023-06-14T15:02:41;4.97;;;2.80;;
5646;SDS011;2845;48.626;9.362;2023-06-14T15:05:16;3.92;;;2.60;;
5646;SDS011;2845;48.626;9.362;2023-06-14T15:07:50;5.13;;;2.60;;
5646;SDS011;2845;48.626;9.362;2023-06-14T15:10:25;4.18;;;2.35;;
5646;SDS011;2845;48.626;9.362;2023-06-14T15:13:02;3.90;;;2.45;;
5646;SDS011;2845;48.626;9.362;2023-06-14T15:15:36;5.53;;;3.03;;
5646;SDS011;2845;48.626;9.362;2023-06-14T15:18:10;3.97;;;2.83;;
5646;SDS011;2845;48.626;9.362;2023-06-14T15:20:45;3.97;;;2.55;;
5646;SDS011;2845;48.626;9.362;2023-06-14T15:23:19;4.00;;;2.88;;
5646;SDS011;2845;48.626;9.362;2023-06-14T15:25:55;3.47;;;2.47;;
5646;SDS011;2845;48.626;9.362;2023-06-14T15:28:31;5.07;;;2.92;;
5646;SDS011;2845;48.626;9.362;2023-06-14T15:31:05;3.72;;;2.83;;
5646;SDS011;2845;48.626;9.362;2023-06-14T15:33:39;5.45;;;2.97;;
5646;SDS011;2845;48.626;9.362;2023-06-14T15:36:14;5.43;;;2.83;;
5646;SDS011;2845;48.626;9.362;2023-06-14T15:38:48;4.20;;;2.42;;
5646;SDS011;2845;48.626;9.362;2023-06-14T15:41:25;3.72;;;2.70;;
5646;SDS011;2845;48.626;9.362;2023-06-14T15:43:59;5.00;;;2.75;;
5646;SDS011;2845;48.626;9.362;2023-06-14T15:46:36;3.25;;;2.30;;
5646;SDS011;2845;48.626;9.362;2023-06-14T15:49:12;4.55;;;2.50;;
5646;SDS011;2845;48.626;9.362;2023-06-14T15:51:49;4.32;;;2.60;;
5646;SDS011;2845;48.626;9.362;2023-06-14T15:54:27;3.90;;;2.63;;
5646;SDS011;2845;48.626;9.362;2023-06-14T15:57:02;3.83;;;2.38;;
5646;SDS011;2845;48.626;9.362;2023-06-14T15:59:37;4.22;;;2.47;;
5646;SDS011;2845;48.626;9.362;2023-06-14T16:02:15;5.80;;;2.40;;
5646;SDS011;2845;48.626;9.362;2023-06-14T16:04:49;2.95;;;2.20;;
5646;SDS011;2845;48.626;9.362;2023-06-14T16:07:24;4.13;;;2.33;;
5646;SDS011;2845;48.626;9.362;2023-06-14T16:09:58;3.08;;;2.20;;